Latest Weather Observations for Giles*

IDW60801

Issued at 6:53 pm WST Thursday 17 January 2019 (issued every 10 minutes, with the page automatically refreshed every 10 minutes)

About weather observations | Map of weather stations | Latest weather observations for WA | Other Formats
Station Details ID: 013017 Name: GILES METEOROLOGICAL OFFICE Lat: -25.03 Lon: 128.30 Height: 598.0 m
Data from the previous 72 hours. | See also: Recent months at Giles*

* Giles observations are collected in the South Australia time zone, which includes daylight saving in the summer period. Therefore, Rain since 9am value is with respect to South Australia local time.

Date/Time
WST
Temp
°C
App
Temp
°C
Dew
Point
°C
Rel
Hum
%
Delta-T
°C
Wind Press
QNH
hPa
Press
MSL
hPa
Rain since
9am
mm
Dir  Spd
km/h
Gust
km/h
Spd
kts
Gust
kts
17/06:30pm 37.7 32.4 4.8 13 18.3 SSW 22 32 12 17 1006.7 1001.7 0.0
17/06:00pm 38.7 32.9 4.6 12 19.0 SW 24 39 13 21 1006.2 1001.3 0.0
17/05:30pm 40.0 34.1 3.7 11 20.0 S 24 32 13 17 1005.8 1000.8 0.0
17/05:00pm 40.2 33.5 3.4 10 20.3 SSW 28 41 15 22 1005.6 1000.6 0.0
17/04:30pm 39.8 34.2 3.2 10 20.0 SW 22 33 12 18 1005.6 1000.6 0.0
17/04:00pm 40.7 33.8 2.3 9 20.9 SW 28 39 15 21 1005.5 1000.5 0.0
17/03:46pm 41.5 35.3 2.4 9 21.3 SW 24 46 13 25 1005.4 1000.4 0.0
17/03:30pm 40.7 35.9 2.7 9 20.8 SSW 17 30 9 16 1005.7 1000.7 0.0
17/03:00pm 40.9 36.0 2.0 9 21.1 S 17 26 9 14 1006.0 1001.0 0.0
17/02:30pm 40.6 35.8 2.4 9 20.7 SSW 17 30 9 16 1006.3 1001.4 0.0
17/02:00pm 40.7 35.4 1.8 9 21.0 S 19 33 10 18 1006.8 1001.8 0.0
17/01:30pm 41.3 35.9 1.3 8 21.4 S 19 35 10 19 1007.1 1002.1 0.0
17/01:00pm 42.0 36.9 3.3 9 21.5 SSW 19 35 10 19 1007.4 1002.4 0.0
17/12:30pm 41.4 35.0 1.2 8 21.6 S 24 39 13 21 1007.7 1002.8 0.0
17/12:00pm 40.1 34.7 2.3 9 20.5 SSW 20 41 11 22 1008.3 1003.4 0.0
17/11:30am 39.7 34.5 2.4 10 20.2 SW 19 39 10 21 1008.7 1003.7 0.0
17/11:00am 38.7 33.5 3.8 11 19.2 S 20 35 11 19 1009.1 1004.1 0.0
17/10:30am 37.7 33.3 4.7 13 18.3 SSW 17 26 9 14 1009.5 1004.6 0.0
17/10:00am 36.2 32.4 5.9 15 17.0 SSW 15 26 8 14 1009.9 1005.0 0.0
17/09:30am 35.6 33.0 5.9 16 16.6 S 9 22 5 12 1010.0 1005.1 0.0
17/09:00am 34.9 31.5 6.1 17 16.1 S 13 24 7 13 1010.3 1005.3 0.0
17/08:30am 34.1 31.1 6.1 17 15.6 SSE 11 17 6 9 1010.3 1005.3 0.0
17/08:00am 33.2 31.1 6.5 19 14.9 S 7 15 4 8 1010.6 1005.6 0.0
17/07:30am 32.1 29.4 7.4 21 13.9 S 11 17 6 9 1010.5 1005.5 0.0
17/07:00am 31.5 28.8 7.2 22 13.6 S 11 15 6 8 1010.7 1005.7 0.0
17/06:30am 30.7 29.2 8.6 25 12.6 S 6 9 3 5 1010.6 1005.6 0.0
17/06:00am 29.6 29.5 9.4 28 11.6 CALM 0 0 0 0 1010.5 1005.5 0.0
17/05:30am 28.4 26.7 8.5 28 11.2 S 7 9 4 5 1010.0 1005.1 0.0
17/05:00am 28.1 25.9 8.0 28 11.2 S 9 15 5 8 1009.8 1004.9 0.0
17/04:30am 28.8 25.8 7.6 26 11.8 S 13 17 7 9 1009.3 1004.4 0.0
17/04:00am 29.4 24.9 6.0 22 12.7 S 19 22 10 12 1008.2 1003.3 0.0
17/03:30am 30.0 25.1 5.0 20 13.4 SSW 20 26 11 14 1007.7 1002.8 0.0
17/03:00am 30.3 25.3 4.6 19 13.7 SSW 20 28 11 15 1007.5 1002.5 0.0
17/02:30am 31.0 26.1 4.1 18 14.2 SSW 19 26 10 14 1007.6 1002.6 0.0
17/02:00am 31.9 25.6 3.9 17 14.9 S 26 39 14 21 1007.6 1002.6 0.0
17/01:30am 31.3 26.2 4.3 18 14.4 SSW 20 30 11 16 1007.7 1002.8 0.0
17/01:00am 32.0 26.1 3.8 17 15.0 SSW 24 35 13 19 1007.8 1002.9 0.0
17/12:30am 32.6 25.8 2.9 15 15.6 SW 28 39 15 21 1008.0 1003.1 0.0
17/12:00am 33.1 27.0 3.0 15 15.9 SW 24 35 13 19 1008.2 1003.3 0.0
 
Date/Time
WST
Temp
°C
App
Temp
°C
Dew
Point
°C
Rel
Hum
%
Delta-T
°C
Wind Press
QNH
hPa
Press
MSL
hPa
Rain since
9am
mm
Dir  Spd
km/h
Gust
km/h
Spd
kts
Gust
kts
16/11:30pm 33.8 27.7 2.7 14 16.4 SW 24 39 13 21 1008.1 1003.2 0.0
16/11:00pm 34.5 29.3 3.6 14 16.6 SW 20 35 11 19 1008.1 1003.2 0.0
16/10:30pm 35.8 29.9 4.0 14 17.3 SW 24 35 13 19 1007.6 1002.6 0.0
16/10:09pm 35.3 29.8 9.3 20 15.3 W 28 46 15 25 1006.7 1001.7 0.0
16/10:00pm 35.0 28.9 9.9 21 14.9 W 32 44 17 24 1006.4 1001.5 0.0
16/09:30pm 37.4 31.4 5.5 14 17.9 W 26 52 14 28 1007.0 1002.0 0.0
16/09:20pm 38.7 33.0 0.6 9 19.9 NW 20 50 11 27 1006.9 1001.9 0.0
16/09:00pm 36.8 33.6 3.1 12 18.2 N 9 13 5 7 1006.5 1001.6 0.0
16/08:30pm 37.5 33.5 2.8 11 18.7 N 13 13 7 7 1006.4 1001.5 0.0
16/08:00pm 37.5 34.2 2.4 11 18.8 N 9 13 5 7 1006.4 1001.5 0.0
16/07:30pm 38.3 34.6 2.5 11 19.2 N 11 11 6 6 1006.1 1001.1 0.0
16/07:00pm 39.6 36.4 3.1 10 20.0 NE 9 9 5 5 1005.7 1000.7 0.0
16/06:30pm 40.1 37.1 4.3 11 20.0 ENE 9 11 5 6 1005.3 1000.3 0.0
16/06:00pm 41.2 38.6 4.0 10 20.8 NE 7 9 4 5 1004.9 999.9 0.0
16/05:30pm 42.3 38.4 1.2 8 22.1 ENE 11 17 6 9 1004.4 999.4 0.0
16/05:00pm 43.1 38.7 0.4 7 22.9 SE 13 20 7 11 1004.2 999.2 0.0
16/04:30pm 43.4 38.9 -0.1 7 23.1 SSE 13 19 7 10 1004.1 999.1 0.0
16/04:00pm 42.8 39.3 1.3 8 22.5 SSE 9 15 5 8 1004.3 999.3 0.0
16/03:30pm 44.0 40.4 0.8 7 23.4 SSE 9 13 5 7 1004.6 999.7 0.0
16/03:00pm 43.9 39.2 -1.6 6 23.8 SSE 13 19 7 10 1005.0 1000.0 0.0
16/02:30pm 43.7 39.6 -0.2 7 23.3 SSW 11 19 6 10 1005.3 1000.3 0.0
16/02:00pm 42.8 38.4 0.3 7 22.7 NE 13 26 7 14 1005.8 1000.8 0.0
16/01:30pm 42.0 38.2 1.6 8 21.8 NE 11 15 6 8 1006.1 1001.1 0.0
16/01:00pm 44.5 39.7 -0.1 6 23.9 SE 15 28 8 15 1006.3 1001.4 0.0
16/12:30pm 42.9 36.4 0.6 7 22.7 NNW 24 35 13 19 1006.8 1001.8 0.0
16/12:00pm 43.3 39.1 1.4 7 22.8 NNW 13 24 7 13 1007.1 1002.1 0.0
16/11:30am 41.8 37.5 3.1 9 21.4 WNW 15 30 8 16 1007.5 1002.5 0.0
16/11:00am 42.2 37.9 3.0 9 21.7 NNW 15 20 8 11 1007.9 1003.0 0.0
16/10:30am 41.7 37.0 3.3 9 21.2 N 17 26 9 14 1008.3 1003.4 0.0
16/10:00am 41.2 35.9 3.1 9 21.0 N 20 26 11 14 1008.8 1003.8 0.0
16/09:30am 40.2 36.2 4.8 11 19.9 NW 15 24 8 13 1008.9 1003.9 0.0
16/09:00am 39.8 34.7 4.2 11 19.8 NNW 20 30 11 16 1009.1 1004.1 0.0
16/08:30am 39.5 34.4 3.9 11 19.7 N 20 30 11 16 1009.0 1004.0 0.0
16/08:00am 38.0 32.4 3.2 11 18.9 N 22 30 12 16 1009.0 1004.0 0.0
16/07:30am 37.9 32.1 2.2 11 19.1 N 22 30 12 16 1009.1 1004.1 0.0
16/07:00am 37.1 32.7 2.6 11 18.5 N 15 20 8 11 1009.0 1004.0 0.0
16/06:30am 35.3 33.4 6.6 17 16.2 NNE 6 7 3 4 1008.8 1003.8 0.0
16/06:00am 32.9 30.6 5.9 18 14.9 NNE 7 9 4 5 1008.6 1003.6 0.0
16/05:30am 32.0 28.3 4.4 17 14.8 ENE 13 17 7 9 1008.1 1003.2 0.0
16/05:00am 31.3 28.3 4.0 17 14.5 ENE 9 11 5 6 1007.5 1002.5 0.0
16/04:30am 32.8 29.1 4.4 17 15.3 ENE 13 17 7 9 1007.4 1002.4 0.0
16/04:00am 32.2 29.4 6.8 20 14.2 NE 11 13 6 7 1007.4 1002.4 0.0
16/03:30am 33.2 31.3 7.4 20 14.6 NNE 7 9 4 5 1007.5 1002.5 0.0
16/03:00am 33.4 30.6 8.4 21 14.4 S 13 20 7 11 1007.7 1002.8 0.0
16/02:30am 35.5 33.1 4.4 14 17.0 S 6 9 3 5 1007.4 1002.4 0.0
16/02:00am 35.9 33.2 2.4 12 17.8 S 6 17 3 9 1007.6 1002.6 0.0
16/01:30am 35.7 30.9 2.7 12 17.5 ENE 17 24 9 13 1008.0 1003.1 0.0
16/01:00am 35.8 31.2 1.7 11 17.9 W 15 19 8 10 1007.3 1002.3 0.0
16/12:30am 36.6 32.0 1.7 11 18.4 W 15 19 8 10 1007.3 1002.3 0.0
16/12:00am 38.3 35.0 2.5 11 19.3 W 9 20 5 11 1007.4 1002.4 0.0
 
Date/Time
WST
Temp
°C
App
Temp
°C
Dew
Point
°C
Rel
Hum
%
Delta-T
°C
Wind Press
QNH
hPa
Press
MSL
hPa
Rain since
9am
mm
Dir  Spd
km/h
Gust
km/h
Spd
kts
Gust
kts
15/11:30pm 38.9 33.1 -0.3 8 20.3 E 20 35 11 19 1007.8 1002.9 0.0
15/11:00pm 35.1 31.8 2.3 12 17.3 ENE 9 24 5 13 1008.6 1003.6 0.0
15/10:30pm 32.5 31.1 5.5 18 14.8 ENE 2 7 1 4 1008.9 1003.9 0.0
15/10:00pm 33.8 30.5 4.8 16 15.8 ENE 11 15 6 8 1009.1 1004.1 0.0
15/09:30pm 33.2 30.8 4.2 16 15.6 ESE 6 9 3 5 1009.0 1004.0 0.0
15/09:00pm 34.7 31.9 3.3 14 16.8 S 7 7 4 4 1008.7 1003.7 0.0
15/08:30pm 36.5 33.2 2.7 12 18.0 W 9 11 5 6 1008.5 1003.5 0.0
15/08:00pm 37.3 34.2 3.5 12 18.4 ESE 9 11 5 6 1008.1 1003.2 0.0
15/07:30pm 37.8 35.3 3.5 12 18.7 NNE 6 7 3 4 1008.0 1003.1 0.0
15/07:00pm 38.5 35.7 3.4 11 19.2 NNE 7 9 4 5 1007.6 1002.6 0.0
15/06:30pm 39.6 37.6 7.0 14 18.9 NNE 7 9 4 5 1007.2 1002.2 0.0
15/06:00pm 41.4 37.3 2.1 9 21.4 ENE 13 20 7 11 1007.1 1002.1 0.0
15/05:30pm 41.4 36.9 2.1 9 21.3 ENE 15 24 8 13 1007.0 1002.0 0.0
15/05:00pm 42.4 39.0 1.9 8 22.1 SSE 9 17 5 9 1006.9 1001.9 0.0
15/04:30pm 42.2 38.2 0.8 8 22.1 ESE 11 17 6 9 1006.8 1001.8 0.0
15/04:00pm 42.8 38.5 0.8 7 22.6 ENE 13 22 7 12 1007.1 1002.1 0.0
15/03:30pm 43.8 37.8 -1.5 6 23.7 N 20 28 11 15 1007.0 1002.0 0.0
15/03:00pm 42.9 37.1 -1.4 6 23.1 NE 19 26 10 14 1007.4 1002.4 0.0
15/02:30pm 43.6 39.1 -0.6 6 23.3 NW 13 30 7 16 1007.5 1002.5 0.0
15/02:00pm 43.7 38.7 1.2 7 23.1 NNW 17 30 9 16 1007.9 1003.0 0.0
15/01:48pm 43.4 37.4 1.2 7 22.8 N 22 48 12 26 1008.2 1003.3 0.0
15/01:47pm 43.8 37.7 0.5 7 23.2 N 22 48 12 26 1008.1 1003.2 0.0
15/01:30pm 43.8 39.3 0.0 7 23.3 NNE 13 30 7 16 1008.2 1003.3 0.0
15/01:00pm 43.6 38.9 0.8 7 23.1 N 15 30 8 16 1008.7 1003.7 0.0
15/12:30pm 42.1 38.4 4.3 10 21.3 ENE 13 30 7 16 1009.1 1004.1 0.0
15/12:00pm 42.0 36.8 2.4 9 21.7 N 19 33 10 18 1009.6 1004.7 0.0
15/11:30am 42.5 37.5 1.1 8 22.3 NNE 17 26 9 14 1009.8 1004.9 0.0
15/11:00am 41.6 35.6 3.3 9 21.2 NNW 24 35 13 19 1010.3 1005.3 0.0
15/10:30am 41.2 36.6 3.9 10 20.8 N 17 26 9 14 1010.8 1005.9 0.0
15/10:00am 40.5 35.5 4.8 11 20.1 NW 20 30 11 16 1011.1 1006.2 0.0
15/09:30am 40.2 35.9 5.1 11 19.8 NNW 17 32 9 17 1011.4 1006.5 0.0
15/09:00am 39.3 34.4 5.2 12 19.2 N 20 30 11 16 1011.5 1006.6 0.0
15/08:30am 38.4 34.0 4.9 12 18.7 NNW 17 24 9 13 1011.5 1006.6 0.0
15/08:00am 37.7 33.3 5.0 13 18.2 NNW 17 24 9 13 1011.7 1006.8 0.0
15/07:30am 36.7 31.6 4.2 13 17.8 N 20 30 11 16 1011.7 1006.8 0.0
15/07:00am 36.0 33.6 5.1 14 17.1 WSW 7 11 4 6 1011.7 1006.8 0.0
15/06:30am 34.4 32.7 6.0 17 15.8 WSW 4 7 2 4 1011.6 1006.7 0.0
15/06:00am 31.9 30.9 9.0 24 13.2 WSW 4 7 2 4 1011.4 1006.5 0.0
15/05:30am 29.5 26.6 6.5 23 12.6 WSW 11 15 6 8 1010.8 1005.9 0.0
15/05:00am 28.2 24.1 6.2 24 11.9 WSW 17 19 9 10 1010.3 1005.3 0.0
15/04:30am 30.0 27.6 6.8 23 12.8 W 9 11 5 6 1009.8 1004.9 0.0
15/04:00am 30.8 28.6 8.0 24 12.9 W 9 13 5 7 1009.3 1004.4 0.0
15/03:30am 30.7 27.1 6.6 22 13.3 W 15 15 8 8 1009.1 1004.1 0.0
15/03:00am 30.3 27.4 6.5 22 13.1 W 11 13 6 7 1009.0 1004.0 0.0
15/02:30am 30.3 26.6 6.2 22 13.2 W 15 19 8 10 1008.9 1003.9 0.0
15/02:00am 29.4 26.1 6.6 23 12.5 W 13 15 7 8 1008.8 1003.8 0.0
15/01:30am 29.7 26.8 6.6 23 12.7 W 11 13 6 7 1009.1 1004.1 0.0
15/01:00am 30.4 27.9 6.7 22 13.1 WNW 9 13 5 7 1009.4 1004.5 0.0
15/12:30am 31.4 30.2 8.2 23 13.2 WNW 4 9 2 5 1009.3 1004.4 0.0
15/12:00am 31.9 30.2 7.4 21 13.8 WNW 6 7 3 4 1008.8 1003.8 0.0
 
Date/Time
WST
Temp
°C
App
Temp
°C
Dew
Point
°C
Rel
Hum
%
Delta-T
°C
Wind Press
QNH
hPa
Press
MSL
hPa
Rain since
9am
mm
Dir  Spd
km/h
Gust
km/h
Spd
kts
Gust
kts
14/11:30pm 31.7 29.1 6.1 20 14.1 WNW 9 13 5 7 1008.9 1003.9 0.0
14/11:00pm 33.6 30.1 5.4 17 15.5 NNW 13 15 7 8 1009.2 1004.2 0.0
14/10:30pm 34.5 30.4 4.3 15 16.4 NNW 15 17 8 9 1009.4 1004.5 0.0
14/10:00pm 35.0 30.6 2.8 13 17.1 NNW 15 22 8 12 1009.7 1004.8 0.0
14/09:30pm 36.5 31.1 -1.3 9 19.0 NNE 17 26 9 14 1009.6 1004.7 0.0
14/09:00pm 36.8 32.5 0.9 10 18.7 ENE 13 15 7 8 1009.2 1004.2 0.0
14/08:30pm 37.4 32.6 0.0 9 19.2 ENE 15 15 8 8 1009.0 1004.0 0.0
14/08:00pm 37.4 33.1 1.3 10 19.0 ENE 13 15 7 8 1008.8 1003.8 0.0
14/07:30pm 37.8 33.3 -0.3 9 19.6 E 13 15 7 8 1008.5 1003.5 0.0
14/07:00pm 38.5 34.2 0.9 9 19.8 E 13 15 7 8 1008.1 1003.2 0.0
14/06:30pm 39.2 35.2 0.6 9 20.3 E 11 13 6 7 1007.9 1003.0 0.0
14/06:00pm 41.1 36.9 -1.2 7 21.9 ENE 11 17 6 9 1007.6 1002.6 0.0
14/05:30pm 42.0 37.5 -0.3 7 22.2 ENE 13 20 7 11 1007.3 1002.3 0.0
14/05:00pm 42.1 37.1 -1.0 7 22.5 E 15 26 8 14 1007.2 1002.2 0.0
14/04:30pm 42.6 38.4 -0.9 7 22.7 ENE 11 22 6 12 1007.1 1002.1 0.0

Other Formats:

Comma delimited format used in spreadsheet applications
http://www.bom.gov.au/fwo/IDW60801/IDW60801.94461.axf

JavaScript Object Notation format (JSON) in row-major order
http://www.bom.gov.au/fwo/IDW60801/IDW60801.94461.json